Time;durP1;ratioP1;P1;durP2;ratioP2;P2;SDS_P1;SDS_P2;PMS_P1;PMS_P2;Temp;Humidity;BMP_temperature;BMP_pressure;BME280_temperature;BME280_humidity;BME280_pressure;Samples;Min_cycle;Max_cycle;Signal;HPM_P1;HPM_P2
2023/10/09 00:01:53;;;;;;;2.63;1.35;;;13.10;99.90;;;;;;5045766;28;20049;-66
2023/10/09 00:04:20;;;;;;;6.75;1.33;;;13.10;99.90;;;;;;5047279;28;20487;-66
2023/10/09 00:06:46;;;;;;;7.15;1.55;;;13.10;99.90;;;;;;5052284;28;20057;-66
2023/10/09 00:09:41;;;;;;;4.85;1.48;;;13.10;99.90;;;;;;5050090;28;20563;-66
2023/10/09 00:12:00;;;;;;;2.85;1.38;;;13.10;99.90;;;;;;5049408;28;20075;-66
2023/10/09 00:14:30;;;;;;;3.10;1.42;;;13.10;99.90;;;;;;5062565;28;20044;-67
2023/10/09 00:17:17;;;;;;;4.03;1.20;;;13.20;99.90;;;;;;5059384;28;20088;-67
2023/10/09 00:19:43;;;;;;;1.95;1.17;;;13.20;99.90;;;;;;5047920;28;20545;-73
2023/10/09 00:22:26;;;;;;;5.40;1.50;;;13.10;99.90;;;;;;5056428;28;20414;-71
2023/10/09 00:25:11;;;;;;;7.95;1.50;;;13.10;99.90;;;;;;5067816;28;20041;-67
2023/10/09 00:27:42;;;;;;;5.93;1.35;;;13.20;99.90;;;;;;5057456;28;20464;-66
2023/10/09 00:30:18;;;;;;;5.38;1.50;;;13.20;99.90;;;;;;5065392;28;20052;-67
2023/10/09 00:32:53;;;;;;;6.85;1.70;;;13.10;99.90;;;;;;5063217;28;20048;-66
2023/10/09 00:35:46;;;;;;;5.15;1.20;;;13.10;99.90;;;;;;5061270;28;20052;-66
2023/10/09 00:38:34;;;;;;;4.30;1.55;;;13.10;99.90;;;;;;5062631;28;20042;-66
2023/10/09 00:43:31;;;;;;;3.72;1.25;;;13.10;99.90;;;;;;5066209;28;20132;-66
2023/10/09 00:46:23;;;;;;;3.85;1.48;;;13.10;99.90;;;;;;5066626;28;20167;-86
2023/10/09 00:49:02;;;;;;;4.97;1.48;;;13.10;99.90;;;;;;5062797;28;20044;-66
2023/10/09 00:51:35;;;;;;;3.35;1.25;;;13.10;99.90;;;;;;5058281;28;20045;-66
2023/10/09 00:54:14;;;;;;;5.38;1.40;;;13.10;99.90;;;;;;5067015;28;20479;-66
2023/10/09 00:56:43;;;;;;;5.50;1.60;;;13.10;99.90;;;;;;5069153;28;20044;-66
2023/10/09 00:59:14;;;;;;;6.50;1.67;;;13.10;99.90;;;;;;5070900;28;20087;-66
2023/10/09 01:01:45;;;;;;;7.30;1.30;;;13.10;99.90;;;;;;5047018;28;20415;-77
2023/10/09 01:04:17;;;;;;;3.60;1.30;;;13.10;99.90;;;;;;5070978;28;20112;-82
2023/10/09 01:06:45;;;;;;;4.72;1.65;;;13.00;99.90;;;;;;5069697;28;20037;-66
2023/10/09 01:09:13;;;;;;;3.55;1.73;;;13.10;99.90;;;;;;5068137;28;20116;-65
2023/10/09 01:11:49;;;;;;;4.07;1.83;;;13.10;99.90;;;;;;5061561;28;20127;-66
2023/10/09 01:14:15;;;;;;;3.38;1.88;;;13.00;99.90;;;;;;5070121;28;20044;-66
2023/10/09 01:16:42;;;;;;;10.75;2.75;;;13.00;99.90;;;;;;5070763;28;20057;-66
2023/10/09 01:19:20;;;;;;;5.65;1.90;;;13.10;99.90;;;;;;5068191;28;20056;-66
2023/10/09 01:21:46;;;;;;;8.05;2.30;;;13.10;99.90;;;;;;5066224;28;20518;-66
2023/10/09 01:24:12;;;;;;;7.32;3.13;;;13.10;99.90;;;;;;5070185;28;20052;-65
2023/10/09 01:26:40;;;;;;;8.45;2.95;;;13.00;99.90;;;;;;5063403;28;20049;-65
2023/10/09 01:29:10;;;;;;;4.40;2.80;;;13.10;99.90;;;;;;5064592;28;20462;-65
2023/10/09 01:31:43;;;;;;;6.80;3.15;;;13.10;99.90;;;;;;5066916;28;20052;-65
2023/10/09 01:34:09;;;;;;;8.70;3.55;;;13.10;99.90;;;;;;5070983;28;20054;-66
2023/10/09 01:36:39;;;;;;;9.23;3.60;;;13.20;99.90;;;;;;5068821;28;20037;-66
2023/10/09 01:39:10;;;;;;;6.75;3.20;;;13.20;99.90;;;;;;5071565;28;20041;-81
2023/10/09 01:41:46;;;;;;;8.98;3.72;;;13.20;99.90;;;;;;5057543;28;20467;-67
2023/10/09 01:44:12;;;;;;;7.80;3.47;;;13.20;99.90;;;;;;5062924;28;20053;-66
2023/10/09 01:46:38;;;;;;;10.27;3.92;;;13.20;99.90;;;;;;5058203;28;20036;-85
2023/10/09 01:49:10;;;;;;;8.30;4.22;;;13.20;99.90;;;;;;5063753;28;20087;-66
2023/10/09 01:51:38;;;;;;;8.85;4.20;;;13.20;99.90;;;;;;5070076;28;20544;-66
2023/10/09 01:54:04;;;;;;;13.05;3.90;;;13.20;99.90;;;;;;5068716;28;20075;-67
2023/10/09 01:56:30;;;;;;;10.52;3.90;;;13.20;99.90;;;;;;5070224;28;20482;-66
2023/10/09 01:59:02;;;;;;;9.35;4.22;;;13.30;99.90;;;;;;5067792;28;20049;-67
2023/10/09 02:01:28;;;;;;;12.38;5.13;;;13.30;99.90;;;;;;5063638;28;20167;-66
2023/10/09 02:03:54;;;;;;;12.32;5.15;;;13.30;99.90;;;;;;5064444;28;20076;-86
2023/10/09 02:06:27;;;;;;;14.90;4.90;;;13.30;99.90;;;;;;5059483;28;20041;-66
2023/10/09 02:08:54;;;;;;;12.82;5.70;;;13.30;99.90;;;;;;5054872;28;20037;-66
2023/10/09 02:14:21;;;;;;;13.48;5.28;;;13.30;99.90;;;;;;5044534;28;20044;-66
2023/10/09 02:17:09;;;;;;;12.68;5.78;;;13.30;99.90;;;;;;5067955;28;20057;-66
2023/10/09 02:19:36;;;;;;;15.27;5.40;;;13.30;99.90;;;;;;5068804;28;20047;-80
2023/10/09 02:22:12;;;;;;;18.90;5.43;;;13.30;99.90;;;;;;5058692;28;20087;-66
2023/10/09 02:27:46;;;;;;;15.30;6.25;;;13.30;99.90;;;;;;5069532;28;20443;-66
2023/10/09 02:30:15;;;;;;;21.55;7.13;;;13.30;99.90;;;;;;5069968;28;20114;-66
2023/10/09 02:32:48;;;;;;;20.42;6.93;;;13.40;99.90;;;;;;5065502;28;20573;-66
2023/10/09 02:35:51;;;;;;;15.70;6.97;;;13.40;99.90;;;;;;5057165;28;20040;-66
2023/10/09 02:38:14;;;;;;;25.65;8.63;;;13.40;99.90;;;;;;5043390;28;20054;-66
2023/10/09 02:43:33;;;;;;;27.10;8.85;;;13.40;99.90;;;;;;5069534;28;20119;-66
2023/10/09 02:46:12;;;;;;;28.52;10.38;;;13.40;99.90;;;;;;5065485;28;20048;-66
2023/10/09 02:48:42;;;;;;;35.72;10.60;;;13.40;99.90;;;;;;5041146;28;20071;-66
2023/10/09 02:51:14;;;;;;;30.83;10.75;;;13.40;99.90;;;;;;5059961;28;20082;-66
2023/10/09 02:53:41;;;;;;;26.35;10.30;;;13.40;99.90;;;;;;5050176;28;20500;-66
2023/10/09 02:56:12;;;;;;;23.27;9.85;;;13.40;99.90;;;;;;5056235;28;20402;-69
2023/10/09 02:58:40;;;;;;;26.60;9.10;;;13.50;99.90;;;;;;5067463;28;20060;-66
2023/10/09 03:01:10;;;;;;;24.77;10.13;;;13.50;99.90;;;;;;5063862;28;20049;-67
2023/10/09 03:03:38;;;;;;;24.27;9.43;;;13.50;99.90;;;;;;5048027;28;20051;-66
2023/10/09 03:06:11;;;;;;;27.38;10.48;;;13.50;99.90;;;;;;5056740;28;20469;-66
2023/10/09 03:08:37;;;;;;;25.73;9.55;;;13.50;99.90;;;;;;5060721;28;20624;-66
2023/10/09 03:11:05;;;;;;;27.88;10.13;;;13.50;99.90;;;;;;5053742;28;20143;-66
2023/10/09 03:13:33;;;;;;;22.73;10.20;;;13.50;99.90;;;;;;5069278;28;20158;-65
2023/10/09 03:15:59;;;;;;;23.40;9.27;;;13.50;99.90;;;;;;5066386;28;20056;-66
2023/10/09 03:18:24;;;;;;;28.80;12.85;;;13.40;99.90;;;;;;5063556;28;20079;-66
2023/10/09 03:20:50;;;;;;;23.38;10.68;;;13.60;99.90;;;;;;5094164;28;20509;-66
2023/10/09 03:23:16;;;;;;;29.48;10.60;;;13.50;99.90;;;;;;5069112;28;20044;-66
2023/10/09 03:25:45;;;;;;;22.30;10.77;;;13.50;99.90;;;;;;5068420;28;20119;-65
2023/10/09 03:28:12;;;;;;;20.95;9.60;;;13.60;99.90;;;;;;5053309;28;20051;-66
2023/10/09 03:30:40;;;;;;;23.98;10.73;;;13.60;99.90;;;;;;5060472;28;20498;-66
2023/10/09 03:33:06;;;;;;;25.48;10.13;;;13.60;99.90;;;;;;5061546;28;20048;-66
2023/10/09 03:35:34;;;;;;;21.05;10.27;;;13.50;99.90;;;;;;5068620;28;20046;-66
2023/10/09 03:38:00;;;;;;;27.95;11.13;;;13.50;99.90;;;;;;5066766;28;20044;-66
2023/10/09 03:40:27;;;;;;;24.95;10.45;;;13.60;99.90;;;;;;5068441;28;20052;-66
2023/10/09 03:42:52;;;;;;;25.85;11.20;;;13.60;99.90;;;;;;5067204;28;20107;-66
2023/10/09 03:45:26;;;;;;;19.40;9.25;;;13.60;99.90;;;;;;5091062;28;20116;-67
2023/10/09 03:48:43;;;;;;;19.10;9.77;;;13.60;99.90;;;;;;5056148;28;20129;-66
2023/10/09 03:50:43;;;;;;;25.88;11.18;;;13.60;99.90;;;;;;5046686;28;20056;-66
2023/10/09 03:53:11;;;;;;;23.38;11.07;;;13.60;99.90;;;;;;5066313;28;20052;-66
2023/10/09 03:55:38;;;;;;;23.90;11.27;;;13.70;99.90;;;;;;5052433;28;20058;-66
2023/10/09 03:58:04;;;;;;;23.67;10.52;;;13.70;99.90;;;;;;5061271;28;20520;-67
2023/10/09 04:00:31;;;;;;;21.05;10.10;;;13.70;99.90;;;;;;5066350;28;20490;-66
2023/10/09 04:02:57;;;;;;;27.83;12.23;;;13.70;99.90;;;;;;5060305;28;20404;-66
2023/10/09 04:05:24;;;;;;;18.73;9.98;;;13.70;99.90;;;;;;5057600;28;20546;-66
2023/10/09 04:07:53;;;;;;;21.75;10.75;;;13.70;99.90;;;;;;5066984;28;20400;-66
2023/10/09 04:13:10;;;;;;;23.92;10.65;;;13.70;99.90;;;;;;5067949;28;20056;-66
2023/10/09 04:15:36;;;;;;;25.88;12.32;;;13.80;99.90;;;;;;5056674;28;20049;-67
2023/10/09 04:18:03;;;;;;;27.48;11.35;;;13.80;99.90;;;;;;5066616;28;20048;-66
2023/10/09 04:23:05;;;;;;;34.90;12.50;;;13.90;99.90;;;;;;5067726;28;20060;-66
2023/10/09 04:25:45;;;;;;;27.90;12.40;;;13.80;99.90;;;;;;5059629;28;20405;-66
2023/10/09 04:30:42;;;;;;;24.37;11.53;;;13.90;99.90;;;;;;5050688;28;20048;-66
2023/10/09 04:33:54;;;;;;;30.45;13.27;;;13.90;99.90;;;;;;5064153;28;20135;-67
2023/10/09 04:41:31;;;;;;;26.77;12.18;;;14.10;99.90;;;;;;5064474;28;20048;-68
2023/10/09 04:44:18;;;;;;;26.30;12.75;;;14.20;99.90;;;;;;5066179;28;20086;-68
2023/10/09 04:47:18;;;;;;;26.13;12.82;;;14.10;99.90;;;;;;5064629;28;20047;-67
2023/10/09 04:49:45;;;;;;;26.35;12.52;;;14.20;99.90;;;;;;5047643;28;20491;-67
2023/10/09 04:52:19;;;;;;;;;;;14.20;99.90;;;;;;5073416;28;20052;-67
2023/10/09 04:57:37;;;;;;;23.70;11.65;;;14.30;99.90;;;;;;5066163;28;20048;-68
2023/10/09 05:00:06;;;;;;;27.40;12.30;;;14.30;99.90;;;;;;5042927;28;20057;-68
2023/10/09 05:02:36;;;;;;;29.63;12.32;;;14.30;99.90;;;;;;5057316;28;20164;-68
2023/10/09 05:05:47;;;;;;;22.40;11.25;;;14.30;99.90;;;;;;5060555;28;20104;-68
2023/10/09 05:08:19;;;;;;;25.10;11.57;;;14.20;99.90;;;;;;5065564;28;20123;-68
2023/10/09 05:16:29;;;;;;;20.08;10.18;;;14.30;99.90;;;;;;5064692;28;19931;-67
2023/10/09 05:18:56;;;;;;;26.88;11.60;;;14.30;99.90;;;;;;5067311;28;20051;-67
2023/10/09 05:29:19;;;;;;;17.77;9.65;;;14.50;99.90;;;;;;5064943;28;20064;-68
2023/10/09 05:34:34;;;;;;;26.60;10.00;;;14.80;99.90;;;;;;5060112;28;20488;-70
2023/10/09 05:37:25;;;;;;;19.10;7.70;;;14.80;99.90;;;;;;5067089;28;20518;-67
2023/10/09 05:47:56;;;;;;;15.98;7.57;;;15.10;99.90;;;;;;5057372;28;20068;-67
2023/10/09 06:06:01;;;;;;;17.88;7.47;;;15.30;99.90;;;;;;5069392;28;20683;-68
2023/10/09 06:09:10;;;;;;;14.55;6.55;;;15.50;99.90;;;;;;5069069;28;20072;-68
2023/10/09 06:14:04;;;;;;;16.83;6.55;;;15.40;99.90;;;;;;5059512;28;20132;-68
2023/10/09 06:16:43;;;;;;;14.52;7.20;;;15.50;99.90;;;;;;5068050;28;20064;-67
2023/10/09 06:19:25;;;;;;;26.98;9.00;;;15.60;99.90;;;;;;5068400;28;20060;-68
2023/10/09 06:24:42;;;;;;;22.80;9.07;;;15.70;99.90;;;;;;5064433;28;20575;-67
2023/10/09 06:27:14;;;;;;;13.27;6.38;;;15.60;99.90;;;;;;5068597;28;20040;-67
2023/10/09 06:32:34;;;;;;;;;;;15.60;99.90;;;;;;5067615;28;20403;-67
2023/10/09 06:35:17;;;;;;;18.75;6.15;;;15.70;99.90;;;;;;5061218;28;20275;-68
2023/10/09 06:58:57;;;;;;;23.02;7.55;;;15.90;99.90;;;;;;5049723;28;20051;-67
2023/10/09 07:04:19;;;;;;;23.42;6.50;;;15.80;99.90;;;;;;5048886;28;20410;-67
2023/10/09 07:17:15;;;;;;;19.90;5.40;;;15.80;99.90;;;;;;5036581;28;20072;-67
2023/10/09 07:24:57;;;;;;;10.63;4.72;;;15.90;99.90;;;;;;5049229;28;20068;-69
2023/10/09 07:27:43;;;;;;;19.27;5.15;;;15.90;99.90;;;;;;5054146;28;20319;-67
2023/10/09 07:38:28;;;;;;;11.77;4.43;;;16.00;99.90;;;;;;5050055;28;20422;-67
2023/10/09 07:43:39;;;;;;;13.77;4.97;;;16.00;99.90;;;;;;5040976;28;20059;-67
2023/10/09 07:49:08;;;;;;;12.63;5.00;;;16.00;99.90;;;;;;5074009;28;20037;-67
2023/10/09 07:51:35;;;;;;;18.15;5.85;;;16.00;99.90;;;;;;5047723;28;20045;-67
2023/10/09 07:54:07;;;;;;;23.60;6.45;;;16.00;99.90;;;;;;5049050;28;20061;-69
2023/10/09 07:56:41;;;;;;;15.30;4.93;;;16.00;99.90;;;;;;5052171;28;20048;-67
2023/10/09 07:59:17;;;;;;;19.08;6.82;;;16.10;99.90;;;;;;5057284;28;20131;-67
2023/10/09 08:01:58;;;;;;;25.23;7.25;;;16.10;99.90;;;;;;5046252;28;20049;-67
2023/10/09 08:04:37;;;;;;;11.00;4.20;;;16.00;99.90;;;;;;5045328;28;20048;-67
2023/10/09 08:07:34;;;;;;;23.30;5.93;;;16.10;99.90;;;;;;5052864;28;20558;-67
2023/10/09 08:17:53;;;;;;;;;;;16.10;99.90;;;;;;5057221;28;20045;-67
2023/10/09 08:20:25;;;;;;;21.85;6.68;;;16.10;99.90;;;;;;5063154;28;20019;-67
2023/10/09 08:22:55;;;;;;;23.95;5.35;;;16.10;99.90;;;;;;5038402;28;20525;-67
2023/10/09 08:25:26;;;;;;;18.92;5.40;;;16.00;99.90;;;;;;5055259;28;20040;-67
2023/10/09 08:27:57;;;;;;;10.02;3.40;;;16.10;99.90;;;;;;5050129;28;20040;-67
2023/10/09 08:33:02;;;;;;;13.98;4.32;;;16.10;99.90;;;;;;5045963;28;20059;-67
2023/10/09 08:35:46;;;;;;;17.17;5.18;;;16.20;99.90;;;;;;5044715;28;20425;-67
2023/10/09 08:38:12;;;;;;;16.90;5.75;;;16.20;99.90;;;;;;5045968;28;20052;-67
2023/10/09 08:40:42;;;;;;;22.52;6.50;;;16.20;99.90;;;;;;5045453;28;20110;-67
2023/10/09 08:43:11;;;;;;;22.38;6.50;;;16.20;99.90;;;;;;5047632;28;20045;-73
2023/10/09 08:45:45;;;;;;;10.63;4.97;;;16.20;99.90;;;;;;5045753;28;20048;-67
2023/10/09 08:48:17;;;;;;;17.73;6.25;;;16.30;99.90;;;;;;5046916;28;20086;-67
2023/10/09 08:50:50;;;;;;;12.95;4.93;;;16.20;99.90;;;;;;5045794;28;20055;-67
2023/10/09 08:53:16;;;;;;;10.35;4.13;;;16.20;99.90;;;;;;5047070;28;20071;-67
2023/10/09 08:55:43;;;;;;;10.05;4.03;;;16.20;99.90;;;;;;5060687;28;20037;-69
2023/10/09 08:58:19;;;;;;;13.95;5.05;;;16.30;99.90;;;;;;5049534;28;20037;-66
2023/10/09 09:00:47;;;;;;;21.02;4.70;;;16.30;99.90;;;;;;5046557;28;20056;-66
2023/10/09 09:03:24;;;;;;;16.77;4.10;;;16.30;99.90;;;;;;5048654;28;20127;-67
2023/10/09 09:06:01;;;;;;;20.20;5.75;;;16.30;99.90;;;;;;5060820;28;20047;-66
2023/10/09 09:08:28;;;;;;;29.70;6.72;;;16.40;99.90;;;;;;5041289;28;20053;-66
2023/10/09 09:11:22;;;;;;;12.13;4.18;;;16.40;99.90;;;;;;5080552;28;20056;-66
2023/10/09 09:14:22;;;;;;;20.33;6.45;;;16.30;99.90;;;;;;5057258;28;20051;-66
2023/10/09 09:16:48;;;;;;;13.80;4.00;;;16.40;99.90;;;;;;5048842;28;20048;-67
2023/10/09 09:19:17;;;;;;;14.35;4.53;;;16.40;99.90;;;;;;5069816;28;20094;-67
2023/10/09 09:21:59;;;;;;;10.75;4.85;;;16.40;99.90;;;;;;5068451;28;20049;-67
2023/10/09 09:26:58;;;;;;;18.65;4.95;;;16.40;99.90;;;;;;5069271;28;20505;-66
2023/10/09 09:29:38;;;;;;;11.48;4.03;;;16.50;99.90;;;;;;5070847;28;20059;-66
2023/10/09 09:32:19;;;;;;;;;;;16.50;99.90;;;;;;5060966;28;20418;-66
2023/10/09 09:34:48;;;;;;;14.60;4.97;;;16.60;99.90;;;;;;5059171;28;19940;-67
2023/10/09 09:37:20;;;;;;;15.35;5.18;;;16.70;99.90;;;;;;5042052;28;20097;-66
2023/10/09 09:39:50;;;;;;;12.50;4.63;;;16.70;99.90;;;;;;5070351;28;20192;-73
2023/10/09 09:42:17;;;;;;;20.40;5.63;;;16.60;99.90;;;;;;5051349;28;20127;-66
2023/10/09 09:44:44;;;;;;;10.95;3.85;;;16.70;99.90;;;;;;5065162;28;20494;-67
2023/10/09 09:47:23;;;;;;;13.65;3.75;;;16.60;99.90;;;;;;5069448;28;20491;-66
2023/10/09 09:49:59;;;;;;;12.10;4.47;;;16.60;99.90;;;;;;5057294;28;20119;-66
2023/10/09 09:52:27;;;;;;;15.52;4.75;;;16.60;99.90;;;;;;5054507;28;20187;-67
2023/10/09 09:54:53;;;;;;;12.35;4.20;;;16.60;99.90;;;;;;5062356;28;20060;-67
2023/10/09 09:57:25;;;;;;;15.93;5.00;;;16.70;99.90;;;;;;5064282;28;20040;-66
2023/10/09 09:59:55;;;;;;;18.73;4.35;;;16.60;99.90;;;;;;5068637;28;20048;-66
2023/10/09 10:02:33;;;;;;;22.58;5.28;;;16.70;99.90;;;;;;5051575;28;20495;-86
2023/10/09 10:05:05;;;;;;;18.23;4.53;;;16.60;99.90;;;;;;5050911;28;20060;-67
2023/10/09 10:07:41;;;;;;;21.05;4.78;;;16.80;99.90;;;;;;5058676;28;20037;-66
2023/10/09 10:10:47;;;;;;;20.35;5.00;;;16.70;99.90;;;;;;5044436;28;20048;-67
2023/10/09 10:13:23;;;;;;;16.42;4.90;;;16.70;99.90;;;;;;5041852;28;20453;-67
2023/10/09 10:16:02;;;;;;;15.27;4.82;;;16.80;99.90;;;;;;5053427;28;20502;-66
2023/10/09 10:18:32;;;;;;;15.18;4.32;;;16.80;99.90;;;;;;5059192;28;20099;-67
2023/10/09 10:21:14;;;;;;;21.38;4.97;;;16.80;99.90;;;;;;5078565;28;20044;-67
2023/10/09 10:23:40;;;;;;;16.95;4.75;;;16.80;99.90;;;;;;5048915;28;20037;-67
2023/10/09 10:26:27;;;;;;;22.73;5.13;;;16.80;99.90;;;;;;5046790;28;20067;-67
2023/10/09 10:29:23;;;;;;;19.67;4.75;;;16.70;99.90;;;;;;5038360;28;20087;-67
2023/10/09 10:32:08;;;;;;;27.55;7.82;;;16.80;99.90;;;;;;5056827;28;20047;-66
2023/10/09 10:34:58;;;;;;;30.38;11.52;;;16.90;99.90;;;;;;5049648;28;20053;-67
2023/10/09 10:37:44;;;;;;;27.60;10.20;;;16.80;99.90;;;;;;5042325;28;20510;-66
2023/10/09 10:40:37;;;;;;;28.20;8.98;;;16.80;99.90;;;;;;5044476;28;20068;-66
2023/10/09 10:43:09;;;;;;;19.80;7.00;;;16.90;99.90;;;;;;5049079;28;20106;-66
2023/10/09 10:45:43;;;;;;;19.40;7.30;;;16.90;99.90;;;;;;5046359;28;20045;-67
2023/10/09 10:48:22;;;;;;;18.80;5.43;;;16.90;99.90;;;;;;5047639;28;20056;-67
2023/10/09 10:50:57;;;;;;;19.88;7.63;;;16.90;99.90;;;;;;5047186;28;20053;-67
2023/10/09 10:53:27;;;;;;;15.63;5.25;;;16.80;99.90;;;;;;5047933;28;20073;-67
2023/10/09 10:56:35;;;;;;;16.80;6.00;;;16.90;99.90;;;;;;5048513;28;20040;-67
2023/10/09 11:01:50;;;;;;;12.83;4.13;;;16.80;99.90;;;;;;5048817;28;20048;-67
2023/10/09 11:09:59;;;;;;;21.98;4.82;;;16.90;99.90;;;;;;5047498;28;20514;-67
2023/10/09 11:12:37;;;;;;;22.52;5.07;;;17.00;99.90;;;;;;5079435;28;20060;-67
2023/10/09 11:15:05;;;;;;;20.15;6.03;;;17.00;99.90;;;;;;5050638;28;20371;-67
2023/10/09 11:17:40;;;;;;;20.92;8.95;;;17.10;99.90;;;;;;5062803;28;20057;-67
2023/10/09 11:20:25;;;;;;;19.40;8.60;;;17.00;99.90;;;;;;5045577;28;20065;-67
2023/10/09 11:23:38;;;;;;;27.80;11.52;;;17.00;99.90;;;;;;5076856;28;20167;-67
2023/10/09 11:25:52;;;;;;;21.10;5.05;;;17.00;99.90;;;;;;5038626;28;20428;-67
2023/10/09 11:31:16;;;;;;;19.67;4.32;;;16.80;99.90;;;;;;5044140;28;20131;-67
2023/10/09 11:33:48;;;;;;;22.50;4.40;;;16.70;99.90;;;;;;5042447;28;20507;-75
2023/10/09 11:36:15;;;;;;;21.98;4.38;;;16.70;99.90;;;;;;5046233;28;20052;-66
2023/10/09 11:38:45;;;;;;;19.98;4.93;;;16.70;99.90;;;;;;5078954;28;20041;-67
2023/10/09 11:41:19;;;;;;;26.95;5.32;;;16.60;99.90;;;;;;5048925;28;20459;-66
2023/10/09 11:43:54;;;;;;;31.70;5.72;;;16.60;99.90;;;;;;5051126;28;20059;-66
2023/10/09 11:46:37;;;;;;;25.75;6.43;;;16.50;99.90;;;;;;5051548;28;20040;-67
2023/10/09 11:52:10;;;;;;;16.52;4.68;;;16.60;99.90;;;;;;5047338;28;20119;-66
2023/10/09 11:54:31;;;;;;;30.00;6.25;;;16.60;99.90;;;;;;5079352;28;20048;-67
2023/10/09 11:57:00;;;;;;;19.50;4.97;;;16.60;99.90;;;;;;5048415;28;20069;-67
2023/10/09 11:59:27;;;;;;;26.75;5.78;;;16.60;99.90;;;;;;5046507;28;20048;-66
2023/10/09 12:01:54;;;;;;;27.00;5.55;;;16.70;99.90;;;;;;5054281;28;20402;-67
2023/10/09 12:04:29;;;;;;;25.85;4.78;;;16.80;99.90;;;;;;5056990;28;20049;-66
2023/10/09 12:07:06;;;;;;;16.08;3.97;;;16.60;99.90;;;;;;5057450;28;20051;-66
2023/10/09 12:09:38;;;;;;;12.00;3.17;;;16.50;99.90;;;;;;5054327;28;20043;-65
2023/10/09 12:12:06;;;;;;;16.30;3.75;;;16.50;99.90;;;;;;5059246;28;20040;-66
2023/10/09 12:14:35;;;;;;;12.32;3.40;;;16.60;99.90;;;;;;5048458;28;20403;-66
2023/10/09 12:17:05;;;;;;;15.65;3.92;;;16.70;99.90;;;;;;5049247;28;20136;-66
2023/10/09 12:19:38;;;;;;;17.83;4.05;;;16.60;99.90;;;;;;5049129;28;20134;-66
2023/10/09 12:22:06;;;;;;;16.35;4.38;;;16.70;99.90;;;;;;5045615;28;20053;-86
2023/10/09 12:24:33;;;;;;;18.58;5.45;;;16.70;99.90;;;;;;5061010;28;20118;-67
2023/10/09 12:26:59;;;;;;;21.90;4.47;;;16.70;99.90;;;;;;5052411;28;20043;-66
2023/10/09 12:29:30;;;;;;;12.00;3.63;;;16.80;99.90;;;;;;5055607;28;20029;-82
2023/10/09 12:31:59;;;;;;;8.38;3.10;;;16.70;99.90;;;;;;5047168;28;20120;-67
2023/10/09 12:34:28;;;;;;;13.52;3.40;;;16.80;99.90;;;;;;5050904;28;20294;-66
2023/10/09 12:36:54;;;;;;;15.90;3.58;;;16.70;99.90;;;;;;5065736;28;20040;-67
2023/10/09 12:39:23;;;;;;;15.57;4.45;;;16.70;99.90;;;;;;5064593;28;20113;-67
2023/10/09 12:41:53;;;;;;;9.30;3.20;;;16.70;99.90;;;;;;5046991;28;20103;-66
2023/10/09 12:44:22;;;;;;;10.27;3.30;;;16.70;99.90;;;;;;5056578;28;20048;-66
2023/10/09 12:46:53;;;;;;;14.20;3.50;;;16.70;99.90;;;;;;5048353;28;20045;-66
2023/10/09 12:49:25;;;;;;;17.80;4.32;;;16.60;99.90;;;;;;5048532;28;20337;-66
2023/10/09 12:51:54;;;;;;;12.95;4.10;;;16.70;99.90;;;;;;5044442;28;20037;-66
2023/10/09 12:54:20;;;;;;;15.40;4.15;;;16.60;99.90;;;;;;5046858;28;20103;-66
2023/10/09 12:56:48;;;;;;;12.27;4.00;;;16.60;99.90;;;;;;5044736;28;20037;-66
2023/10/09 12:59:14;;;;;;;18.67;4.80;;;16.70;99.90;;;;;;5044958;28;20091;-66
2023/10/09 13:01:44;;;;;;;26.23;6.22;;;16.70;99.90;;;;;;5078848;28;20073;-66
2023/10/09 13:04:17;;;;;;;19.83;5.57;;;16.60;99.90;;;;;;5044297;28;20044;-67
2023/10/09 13:06:44;;;;;;;20.95;6.60;;;16.60;99.90;;;;;;5078167;28;20451;-66
2023/10/09 13:09:24;;;;;;;13.77;3.22;;;16.70;99.90;;;;;;5053924;28;20044;-66
2023/10/09 13:11:50;;;;;;;14.38;4.57;;;16.50;99.90;;;;;;5050438;28;20041;-84
2023/10/09 13:14:21;;;;;;;11.50;3.33;;;16.60;99.90;;;;;;5052230;28;20091;-87
2023/10/09 13:16:50;;;;;;;11.05;3.60;;;16.60;99.90;;;;;;5056629;28;20053;-66
2023/10/09 13:19:17;;;;;;;11.70;3.25;;;16.60;99.90;;;;;;5053137;28;20063;-66
2023/10/09 13:21:43;;;;;;;13.50;2.85;;;16.50;99.90;;;;;;5053072;28;20120;-67
2023/10/09 13:24:13;;;;;;;15.85;3.20;;;16.50;99.90;;;;;;5060050;28;20051;-67
2023/10/09 13:26:40;;;;;;;;;;;16.50;99.90;;;;;;5053123;28;20094;-66
2023/10/09 13:29:09;;;;;;;15.30;3.28;;;16.40;99.90;;;;;;5061292;28;19963;-67
2023/10/09 13:31:37;;;;;;;12.98;3.42;;;16.40;99.90;;;;;;5047218;28;20068;-66
2023/10/09 13:34:10;;;;;;;12.45;3.55;;;16.40;99.90;;;;;;5057856;28;20123;-66
2023/10/09 13:36:37;;;;;;;17.33;5.38;;;16.40;99.90;;;;;;5047504;28;20055;-66
2023/10/09 13:39:26;;;;;;;21.98;3.67;;;16.40;99.90;;;;;;5044329;28;20037;-66
2023/10/09 13:41:59;;;;;;;21.33;3.40;;;16.40;99.90;;;;;;5062167;28;20115;-66
2023/10/09 13:44:29;;;;;;;13.88;3.45;;;16.40;99.90;;;;;;5067794;28;20044;-66
2023/10/09 13:47:01;;;;;;;16.25;4.82;;;16.40;99.90;;;;;;5044746;28;20055;-66
2023/10/09 13:49:29;;;;;;;15.45;3.30;;;16.50;99.90;;;;;;5041275;28;20130;-66
2023/10/09 13:51:56;;;;;;;16.52;4.30;;;16.40;99.90;;;;;;5045295;28;20043;-66
2023/10/09 13:57:04;;;;;;;11.43;3.33;;;16.40;99.90;;;;;;5077128;28;20041;-67
2023/10/09 13:59:30;;;;;;;13.93;2.75;;;16.30;99.90;;;;;;5045535;28;20053;-66
2023/10/09 14:01:56;;;;;;;14.75;3.63;;;16.30;99.90;;;;;;5047208;28;20503;-66
2023/10/09 14:04:23;;;;;;;18.77;5.45;;;16.40;99.90;;;;;;5050130;28;20399;-67
2023/10/09 14:06:56;;;;;;;13.60;2.83;;;16.30;99.90;;;;;;5044142;28;20037;-66
2023/10/09 14:09:38;;;;;;;13.93;2.83;;;16.30;99.90;;;;;;5048408;28;20061;-67
2023/10/09 14:12:06;;;;;;;13.15;2.50;;;16.40;99.90;;;;;;5060414;28;20040;-67
2023/10/09 14:14:40;;;;;;;11.80;3.47;;;16.40;99.90;;;;;;5063221;28;20571;-66
2023/10/09 14:17:11;;;;;;;10.00;2.78;;;16.50;99.90;;;;;;5053318;28;20093;-66
2023/10/09 14:19:46;;;;;;;11.35;2.78;;;16.40;99.90;;;;;;5052252;28;20095;-66
2023/10/09 14:22:15;;;;;;;9.27;2.20;;;16.50;99.90;;;;;;5052033;28;20479;-67
2023/10/09 14:24:44;;;;;;;9.35;2.10;;;16.40;99.90;;;;;;5080055;28;20052;-66
2023/10/09 14:27:17;;;;;;;12.02;2.00;;;16.40;99.90;;;;;;5047112;28;20453;-66
2023/10/09 14:29:47;;;;;;;10.07;2.80;;;16.50;99.90;;;;;;5059483;28;20110;-80
2023/10/09 14:32:14;;;;;;;11.43;2.95;;;16.40;99.90;;;;;;5075371;28;20061;-66
2023/10/09 14:34:49;;;;;;;10.10;1.88;;;16.50;99.90;;;;;;5052750;28;20236;-66
2023/10/09 14:37:19;;;;;;;11.05;2.35;;;16.50;99.90;;;;;;5051679;28;20158;-66
2023/10/09 14:39:48;;;;;;;7.95;2.85;;;16.50;99.90;;;;;;5050573;28;20044;-66
2023/10/09 14:42:20;;;;;;;11.30;3.08;;;16.60;99.90;;;;;;5049412;28;20052;-66
2023/10/09 14:44:46;;;;;;;10.15;1.67;;;16.60;99.90;;;;;;5048287;28;20040;-66
2023/10/09 14:47:14;;;;;;;11.52;1.50;;;16.50;99.90;;;;;;5051918;28;20130;-66
2023/10/09 14:49:46;;;;;;;9.63;1.48;;;16.60;99.90;;;;;;5057825;28;20482;-66
2023/10/09 14:52:16;;;;;;;13.65;2.72;;;16.60;99.90;;;;;;5075971;28;20048;-66
2023/10/09 14:54:44;;;;;;;11.20;3.90;;;16.60;99.90;;;;;;5060845;28;20470;-67
2023/10/09 14:57:11;;;;;;;9.93;3.47;;;16.50;99.90;;;;;;5060292;28;20103;-66
2023/10/09 14:59:37;;;;;;;9.07;2.08;;;16.50;99.90;;;;;;5055455;28;20056;-66
2023/10/09 15:02:05;;;;;;;17.83;6.55;;;16.50;99.90;;;;;;5051911;28;20037;-66
2023/10/09 15:04:31;;;;;;;13.55;5.32;;;16.60;99.90;;;;;;5049411;28;20495;-66
2023/10/09 15:06:57;;;;;;;10.13;4.13;;;16.50;99.90;;;;;;5050796;28;20083;-66
2023/10/09 15:09:28;;;;;;;8.13;1.30;;;16.40;99.90;;;;;;5060067;28;20449;-66
2023/10/09 15:11:54;;;;;;;5.72;1.40;;;16.40;99.90;;;;;;5055603;28;20403;-66
2023/10/09 15:14:20;;;;;;;5.22;1.55;;;16.40;99.90;;;;;;5061982;28;20048;-66
2023/10/09 15:16:46;;;;;;;6.60;1.67;;;16.40;99.90;;;;;;5066072;28;20065;-66
2023/10/09 15:19:13;;;;;;;8.85;1.88;;;16.40;99.90;;;;;;5054798;28;20207;-66
2023/10/09 15:21:46;;;;;;;7.03;1.58;;;16.50;99.90;;;;;;5055852;28;20077;-66
2023/10/09 15:24:16;;;;;;;4.50;1.25;;;16.40;99.90;;;;;;5058575;28;20088;-66
2023/10/09 15:27:06;;;;;;;10.48;1.42;;;16.40;99.90;;;;;;5077449;28;20036;-66
2023/10/09 15:29:33;;;;;;;;;;;16.40;99.90;;;;;;5046948;28;20057;-66
2023/10/09 15:32:04;;;;;;;13.35;2.25;;;16.40;99.90;;;;;;5050428;28;19924;-66
2023/10/09 15:34:36;;;;;;;8.07;1.90;;;16.40;99.90;;;;;;5048903;28;20095;-66
2023/10/09 15:37:07;;;;;;;7.90;1.95;;;16.30;99.90;;;;;;5050577;28;20586;-86
2023/10/09 15:39:34;;;;;;;6.22;1.65;;;16.30;99.90;;;;;;5078213;28;20091;-66
2023/10/09 15:42:00;;;;;;;8.68;3.00;;;16.30;99.90;;;;;;5051966;28;20102;-66
2023/10/09 15:44:26;;;;;;;14.75;4.72;;;16.30;99.90;;;;;;5052356;28;20048;-67